LJCE

Details ICAO LJCE
Name CERKLJE
Region Slovenia
Timezone Europe/Ljubljana (UTC+1.0)
Plans Departing 16
Arriving 7
Stats Elevation 510 ft / 155 m (AMSL)
Location 45.900415° 15.530731°
Runways 2
Magnetic Variation 3.862° E
Sunrise 2017-12-14 06:33:16 UTC / 2017-12-14 07:33:16 Local
Sunset 2017-12-14 15:14:37 UTC / 2017-12-14 16:14:37 Local
Advertisement - Login to hide

Runways

ID Width Length Bearing (true) Bearing (mag) Surface Threshold Offset Overrun Length
09 148 ft / 45 m 7,910 ft / 2,411 m 89.19° 85.33° Asphalt 0 ft / 0 m 0 ft / 0 m
09L 180 ft / 55 m 6,612 ft / 2,015 m 89.16° 85.30° Grass 0 ft / 0 m 0 ft / 0 m
27 148 ft / 45 m 7,910 ft / 2,411 m 269.21° 265.35° Asphalt 0 ft / 0 m 0 ft / 0 m
27R 180 ft / 55 m 6,612 ft / 2,015 m 269.18° 265.32° Grass 0 ft / 0 m 0 ft / 0 m

Map

Weather


0- 5 10 15 20 25 30 35+ Temperature / ° C

Clouds and Precipitation
Forecast for 2017-12-15 00:00 UTC. Updated 2 hours ago

Ground ~20,000 ft ~40,000 ft Winds

METAR

LJCE 142100Z AUTO 00000KT 1900 R09/1200N -SHRA FG FEW027/// SCT055/// BKN080/// 04/04 Q1003

TAF

Not found

Frequencies

Ground 118.47 MHz FIS
Approach 118.75 MHz APP
Tower 119.50 MHz TWR
Warning: Do not use this data for real-world aviation or navigation. No guarantee of current accuracy is given.